Time;durP1;ratioP1;P1;durP2;ratioP2;P2;SDS_P1;SDS_P2;PMS_P1;PMS_P2;Temp;Humidity;BMP_temperature;BMP_pressure;BME280_temperature;BME280_humidity;BME280_pressure;Samples;Min_cycle;Max_cycle;Signal;HPM_P1;HPM_P2
2021/09/28 00:00:28;;;;;;;0.60;0.60;;;16.70;99.90;;;;;;4983781;28;20447;-71
2021/09/28 00:02:54;;;;;;;0.50;0.50;;;16.60;99.90;;;;;;4994402;28;20175;-71
2021/09/28 00:05:19;;;;;;;0.60;0.50;;;16.50;99.90;;;;;;4988039;28;20775;-72
2021/09/28 00:07:45;;;;;;;0.70;0.53;;;16.30;99.90;;;;;;4974438;28;20241;-71
2021/09/28 00:10:11;;;;;;;0.40;0.40;;;16.20;99.90;;;;;;4980802;28;20199;-69
2021/09/28 00:12:37;;;;;;;0.40;0.40;;;16.10;99.90;;;;;;4976807;28;20175;-69
2021/09/28 00:15:05;;;;;;;0.80;0.53;;;15.90;99.90;;;;;;4994155;28;20662;-70
2021/09/28 00:17:30;;;;;;;0.50;0.50;;;15.80;99.90;;;;;;4993756;28;20636;-70
2021/09/28 00:19:56;;;;;;;1.53;0.60;;;15.70;99.90;;;;;;4989582;28;20574;-69
2021/09/28 00:22:21;;;;;;;0.47;0.47;;;15.60;99.90;;;;;;4974669;28;20307;-69
2021/09/28 00:24:47;;;;;;;0.67;0.67;;;15.50;99.90;;;;;;4974717;28;20176;-69
2021/09/28 00:27:13;;;;;;;0.57;0.57;;;15.40;99.90;;;;;;4974153;28;20188;-69
2021/09/28 00:29:38;;;;;;;0.50;0.47;;;15.30;99.90;;;;;;4975778;28;20195;-71
2021/09/28 00:32:06;;;;;;;0.63;0.60;;;15.10;99.90;;;;;;4958380;28;20182;-71
2021/09/28 00:34:32;;;;;;;0.40;0.40;;;15.00;99.90;;;;;;4974631;28;20183;-70
2021/09/28 00:36:58;;;;;;;1.07;0.77;;;14.90;99.90;;;;;;4980484;28;20440;-70
2021/09/28 00:39:24;;;;;;;0.50;0.50;;;14.80;99.90;;;;;;4976109;28;21024;-67
2021/09/28 00:41:50;;;;;;;0.97;0.40;;;14.60;99.90;;;;;;4993791;28;20249;-70
2021/09/28 00:44:15;;;;;;;0.80;0.60;;;14.60;99.90;;;;;;4994135;28;20174;-69
2021/09/28 00:46:41;;;;;;;0.40;0.40;;;14.50;99.90;;;;;;4980483;28;20166;-68
2021/09/28 00:49:08;;;;;;;0.50;0.50;;;14.40;99.90;;;;;;4993218;28;20260;-69
2021/09/28 00:51:34;;;;;;;0.83;0.83;;;14.40;99.90;;;;;;4994190;28;20240;-70
2021/09/28 00:54:00;;;;;;;0.70;0.70;;;14.30;99.90;;;;;;4976561;28;20402;-69
2021/09/28 00:56:26;;;;;;;0.60;0.60;;;14.20;99.90;;;;;;4974000;28;20411;-68
2021/09/28 00:58:52;;;;;;;0.50;0.50;;;14.10;99.90;;;;;;4973801;28;20486;-69
2021/09/28 01:01:18;;;;;;;0.80;0.80;;;14.10;99.90;;;;;;4989639;28;20176;-69
2021/09/28 01:03:44;;;;;;;1.00;1.00;;;14.00;99.90;;;;;;4993663;28;20414;-68
2021/09/28 01:06:10;;;;;;;1.37;0.50;;;14.00;99.90;;;;;;4993652;28;20917;-71
2021/09/28 01:08:36;;;;;;;0.50;0.50;;;13.90;99.90;;;;;;4974032;28;20227;-69
2021/09/28 01:11:03;;;;;;;0.60;0.60;;;13.90;99.90;;;;;;4983290;28;20991;-69
2021/09/28 01:13:33;;;;;;;0.63;0.63;;;13.90;99.90;;;;;;4993547;28;20494;-71
2021/09/28 01:15:58;;;;;;;0.93;0.60;;;13.80;99.90;;;;;;4985073;28;20434;-69
2021/09/28 01:18:25;;;;;;;0.90;0.63;;;13.80;99.90;;;;;;4973889;28;20497;-70
2021/09/28 01:20:52;;;;;;;0.50;0.50;;;13.80;99.90;;;;;;4974178;28;20182;-70
2021/09/28 01:23:17;;;;;;;0.50;0.50;;;13.80;99.90;;;;;;4974141;28;20414;-68
2021/09/28 01:25:43;;;;;;;0.83;0.70;;;13.80;99.90;;;;;;4974455;28;20383;-69
2021/09/28 01:28:09;;;;;;;0.63;0.63;;;13.80;99.90;;;;;;4987730;28;20245;-71
2021/09/28 01:30:34;;;;;;;1.53;0.90;;;13.80;99.90;;;;;;4985672;28;20740;-69
2021/09/28 01:33:04;;;;;;;1.27;0.70;;;13.80;99.90;;;;;;4973914;28;20210;-70
2021/09/28 01:35:30;;;;;;;4.57;0.90;;;13.80;99.90;;;;;;4957365;28;20638;-69
2021/09/28 01:37:56;;;;;;;0.53;0.53;;;13.80;99.90;;;;;;4985662;28;20417;-69
2021/09/28 01:40:22;;;;;;;1.07;0.97;;;13.80;99.90;;;;;;4993474;28;20552;-69
2021/09/28 01:42:48;;;;;;;0.67;0.67;;;13.90;99.90;;;;;;4993528;28;20501;-70
2021/09/28 01:45:14;;;;;;;0.50;0.50;;;13.80;99.90;;;;;;4993109;28;20396;-68
2021/09/28 01:47:40;;;;;;;1.37;0.70;;;13.80;99.90;;;;;;4992668;28;20292;-69
2021/09/28 01:50:07;;;;;;;0.60;0.60;;;13.80;99.90;;;;;;4994215;28;20201;-69
2021/09/28 01:52:37;;;;;;;2.10;1.03;;;13.80;99.90;;;;;;4997106;28;20594;-68
2021/09/28 01:55:07;;;;;;;0.73;0.73;;;13.90;99.90;;;;;;4995262;28;20417;-69
2021/09/28 01:57:33;;;;;;;0.67;0.67;;;13.90;99.90;;;;;;4977906;28;20561;-69
2021/09/28 02:00:00;;;;;;;1.27;0.67;;;13.90;99.90;;;;;;4977329;28;20849;-69
2021/09/28 02:02:26;;;;;;;0.90;0.90;;;13.80;99.90;;;;;;4960819;28;20430;-70
2021/09/28 02:04:52;;;;;;;1.03;0.70;;;13.80;99.90;;;;;;4993256;28;20583;-70
2021/09/28 02:07:18;;;;;;;0.70;0.70;;;13.80;99.90;;;;;;4996074;28;21011;-70
2021/09/28 02:09:43;;;;;;;0.87;0.87;;;13.80;99.90;;;;;;4979037;28;20961;-70
2021/09/28 02:12:09;;;;;;;0.90;0.63;;;13.80;99.90;;;;;;4996585;28;20518;-69
2021/09/28 02:14:35;;;;;;;5.77;0.70;;;13.70;99.90;;;;;;4996106;28;20192;-70
2021/09/28 02:17:00;;;;;;;0.60;0.60;;;13.70;99.90;;;;;;4995268;28;20169;-69
2021/09/28 02:19:26;;;;;;;0.47;0.47;;;13.70;99.90;;;;;;4959460;28;20198;-68
2021/09/28 02:21:52;;;;;;;0.70;0.70;;;13.70;99.90;;;;;;4976965;28;20278;-70
2021/09/28 02:24:17;;;;;;;1.13;0.70;;;13.70;99.90;;;;;;4987952;28;20605;-70
2021/09/28 02:26:44;;;;;;;1.27;0.77;;;13.60;99.90;;;;;;4996119;28;20211;-70
2021/09/28 02:29:11;;;;;;;1.83;0.87;;;13.60;99.90;;;;;;4996257;28;20279;-71
2021/09/28 02:31:37;;;;;;;0.50;0.50;;;13.60;99.90;;;;;;4990353;28;20426;-70
2021/09/28 02:34:06;;;;;;;0.50;0.50;;;13.60;99.90;;;;;;4976529;28;20429;-71
2021/09/28 02:36:33;;;;;;;0.63;0.63;;;13.60;99.90;;;;;;4976411;28;20411;-70
2021/09/28 02:38:59;;;;;;;1.00;0.90;;;13.60;99.90;;;;;;4976600;28;20438;-70
2021/09/28 02:41:25;;;;;;;0.50;0.50;;;13.60;99.90;;;;;;4983063;28;20488;-67
2021/09/28 02:43:50;;;;;;;0.70;0.70;;;13.50;99.90;;;;;;4976424;28;20896;-68
2021/09/28 02:46:16;;;;;;;0.63;0.63;;;13.50;99.90;;;;;;4994043;28;20194;-68
2021/09/28 02:48:41;;;;;;;0.53;0.53;;;13.50;99.90;;;;;;4995326;28;20685;-67
2021/09/28 02:51:07;;;;;;;0.60;0.53;;;13.60;99.90;;;;;;4976949;28;20553;-68
2021/09/28 02:53:33;;;;;;;0.67;0.67;;;13.60;99.90;;;;;;4976366;28;20544;-69
2021/09/28 02:55:59;;;;;;;1.03;1.03;;;13.60;99.90;;;;;;4976080;28;20253;-70
2021/09/28 02:58:24;;;;;;;0.73;0.73;;;13.60;99.90;;;;;;4975617;28;20644;-68
2021/09/28 03:00:50;;;;;;;0.97;0.80;;;13.60;99.90;;;;;;4983031;28;20186;-68
2021/09/28 03:03:15;;;;;;;1.73;0.93;;;13.70;99.90;;;;;;4982169;28;20185;-68
2021/09/28 03:05:41;;;;;;;0.97;0.60;;;13.60;99.90;;;;;;4976074;28;20186;-68
2021/09/28 03:08:07;;;;;;;2.93;0.87;;;13.60;99.90;;;;;;4975475;28;20226;-68
2021/09/28 03:10:32;;;;;;;1.33;0.77;;;13.70;99.90;;;;;;4975923;28;20199;-68
2021/09/28 03:12:58;;;;;;;0.90;0.90;;;13.60;99.90;;;;;;4990989;28;20265;-68
2021/09/28 03:15:24;;;;;;;0.70;0.70;;;13.60;99.90;;;;;;4994798;28;20174;-68
2021/09/28 03:17:50;;;;;;;1.00;1.00;;;13.70;99.90;;;;;;4994931;28;20557;-68
2021/09/28 03:20:15;;;;;;;0.80;0.80;;;13.60;99.90;;;;;;4995131;28;20319;-68
2021/09/28 03:22:41;;;;;;;0.50;0.50;;;13.60;99.90;;;;;;4964506;28;20205;-69
2021/09/28 03:25:07;;;;;;;1.20;0.93;;;13.70;99.90;;;;;;4975400;28;20680;-69
2021/09/28 03:27:33;;;;;;;1.07;0.70;;;13.70;99.90;;;;;;4993070;28;20206;-69
2021/09/28 03:29:59;;;;;;;1.17;0.80;;;13.60;99.90;;;;;;4995021;28;20439;-70
2021/09/28 03:32:24;;;;;;;0.70;0.57;;;13.70;99.90;;;;;;4967096;28;20182;-69
2021/09/28 03:34:50;;;;;;;0.80;0.80;;;13.60;99.90;;;;;;4975492;28;20665;-69
2021/09/28 03:37:15;;;;;;;0.93;0.63;;;13.60;99.90;;;;;;4975020;28;20177;-69
2021/09/28 03:39:41;;;;;;;1.70;0.73;;;13.60;99.90;;;;;;4975245;28;20225;-70
2021/09/28 03:42:07;;;;;;;0.70;0.70;;;13.60;99.90;;;;;;4982208;28;20187;-70
2021/09/28 03:44:32;;;;;;;1.20;0.93;;;13.60;99.90;;;;;;4994695;28;20183;-69
2021/09/28 03:46:58;;;;;;;1.47;0.57;;;13.50;99.90;;;;;;4994168;28;20224;-70
2021/09/28 03:49:24;;;;;;;0.83;0.83;;;13.50;99.90;;;;;;4994504;28;20194;-70
2021/09/28 03:51:49;;;;;;;0.80;0.70;;;13.50;99.90;;;;;;4985701;28;20614;-70
2021/09/28 03:54:15;;;;;;;0.80;0.80;;;13.40;99.90;;;;;;4993098;28;20177;-70
2021/09/28 03:56:40;;;;;;;1.20;1.10;;;13.40;99.90;;;;;;4994307;28;20219;-71
2021/09/28 03:59:06;;;;;;;0.70;0.70;;;13.30;99.90;;;;;;4994394;28;20192;-69
2021/09/28 04:01:32;;;;;;;1.47;0.77;;;13.30;99.90;;;;;;4988637;28;20600;-69
2021/09/28 04:03:57;;;;;;;0.77;0.77;;;13.30;99.90;;;;;;4974996;28;20261;-70
2021/09/28 04:06:23;;;;;;;2.10;0.80;;;13.20;99.90;;;;;;4975119;28;20177;-70
2021/09/28 04:08:49;;;;;;;0.90;0.90;;;13.20;99.90;;;;;;4990778;28;20205;-70
2021/09/28 04:11:15;;;;;;;2.73;1.47;;;13.20;99.90;;;;;;4991342;28;20179;-69
2021/09/28 04:13:43;;;;;;;0.90;0.90;;;13.10;99.90;;;;;;4974248;28;20173;-68
2021/09/28 04:16:09;;;;;;;1.10;1.00;;;13.10;99.90;;;;;;4974775;28;20171;-69
2021/09/28 04:18:34;;;;;;;3.53;1.10;;;13.00;99.90;;;;;;4956868;28;20559;-69
2021/09/28 04:21:00;;;;;;;2.53;1.30;;;13.00;99.90;;;;;;4975160;28;20177;-69
2021/09/28 04:23:26;;;;;;;1.50;1.10;;;12.90;99.90;;;;;;4978451;28;20267;-69
2021/09/28 04:25:52;;;;;;;2.73;1.07;;;12.90;99.90;;;;;;4974684;28;20264;-69
2021/09/28 04:28:17;;;;;;;1.27;1.17;;;12.80;99.90;;;;;;4975273;28;20663;-68
2021/09/28 04:30:43;;;;;;;1.37;0.70;;;12.80;99.90;;;;;;4994040;28;20223;-68
2021/09/28 04:33:09;;;;;;;2.50;1.43;;;12.70;99.90;;;;;;4958405;28;20184;-69
2021/09/28 04:35:35;;;;;;;1.73;1.63;;;12.60;99.90;;;;;;4974728;28;20192;-69
2021/09/28 04:38:00;;;;;;;1.73;1.63;;;12.60;99.90;;;;;;4986598;28;20415;-69
2021/09/28 04:40:26;;;;;;;1.57;1.47;;;12.60;99.90;;;;;;4975949;28;20227;-70
2021/09/28 04:42:52;;;;;;;4.30;2.03;;;12.60;99.90;;;;;;4974498;28;20270;-68
2021/09/28 04:45:18;;;;;;;1.73;1.63;;;12.50;99.90;;;;;;4974498;28;20445;-70
2021/09/28 04:47:44;;;;;;;1.30;1.20;;;12.50;99.90;;;;;;4973970;28;20300;-68
2021/09/28 04:50:10;;;;;;;2.20;2.00;;;12.50;99.90;;;;;;4989513;28;20211;-68
2021/09/28 04:52:36;;;;;;;2.65;2.45;;;12.50;99.90;;;;;;4980946;28;20204;-71
2021/09/28 04:55:06;;;;;;;1.98;1.80;;;12.40;99.90;;;;;;4974506;28;20209;-69
2021/09/28 04:57:31;;;;;;;5.22;2.20;;;12.40;99.90;;;;;;4956885;28;20230;-70
2021/09/28 04:59:57;;;;;;;2.13;1.90;;;12.30;99.90;;;;;;4987611;28;20729;-70
2021/09/28 05:02:23;;;;;;;2.10;2.00;;;12.30;99.90;;;;;;4993840;28;20172;-70
2021/09/28 05:04:49;;;;;;;2.50;2.30;;;12.30;99.90;;;;;;4993155;28;20524;-71
2021/09/28 05:07:14;;;;;;;4.10;3.17;;;12.30;99.90;;;;;;4973658;28;20181;-69
2021/09/28 05:09:40;;;;;;;2.03;1.80;;;12.30;99.90;;;;;;4967527;28;20199;-69
2021/09/28 05:12:06;;;;;;;2.63;1.87;;;12.30;99.90;;;;;;4993614;28;20219;-71
2021/09/28 05:14:32;;;;;;;2.67;2.47;;;12.40;99.90;;;;;;4976200;28;20261;-68
2021/09/28 05:16:58;;;;;;;3.67;2.23;;;12.50;99.90;;;;;;4958142;28;20645;-69
2021/09/28 05:19:24;;;;;;;3.60;2.63;;;12.50;99.90;;;;;;4974174;28;20768;-68
2021/09/28 05:21:50;;;;;;;3.75;2.78;;;12.50;99.90;;;;;;4988842;28;20180;-71
2021/09/28 05:24:17;;;;;;;3.00;2.47;;;12.60;99.90;;;;;;4993491;28;20196;-69
2021/09/28 05:26:43;;;;;;;3.73;2.37;;;12.60;99.90;;;;;;4981736;28;20423;-69
2021/09/28 05:29:09;;;;;;;6.13;3.40;;;12.60;99.90;;;;;;4977672;28;20272;-69
2021/09/28 05:31:35;;;;;;;3.23;3.00;;;12.70;99.90;;;;;;4977891;28;20723;-67
2021/09/28 05:34:01;;;;;;;3.80;3.03;;;12.70;99.90;;;;;;4978025;28;20409;-69
2021/09/28 05:36:26;;;;;;;4.40;3.33;;;12.80;99.90;;;;;;4960457;28;20240;-69
2021/09/28 05:38:52;;;;;;;6.53;3.70;;;12.80;99.90;;;;;;4976980;28;20836;-70
2021/09/28 05:41:18;;;;;;;4.67;3.23;;;12.90;99.90;;;;;;4960201;28;20195;-72
2021/09/28 05:43:44;;;;;;;4.53;3.93;;;12.90;99.90;;;;;;4978056;28;20177;-70
2021/09/28 05:46:10;;;;;;;3.70;3.03;;;13.00;99.90;;;;;;4980716;28;20205;-66
2021/09/28 05:48:47;;;;;;;4.18;3.78;;;13.00;99.90;;;;;;4977218;28;20447;-66
2021/09/28 05:51:18;;;;;;;3.40;3.10;;;13.00;99.90;;;;;;4977084;28;20621;-66
2021/09/28 05:54:01;;;;;;;4.20;3.80;;;13.10;99.90;;;;;;4977152;28;20531;-66
2021/09/28 05:56:29;;;;;;;3.40;3.10;;;13.10;99.90;;;;;;4947718;28;20433;-65
2021/09/28 05:58:54;;;;;;;4.67;2.63;;;13.20;99.90;;;;;;4963418;28;20442;-66
2021/09/28 06:01:29;;;;;;;3.90;3.60;;;13.20;99.90;;;;;;4961521;28;20473;-65
2021/09/28 06:03:55;;;;;;;6.50;4.37;;;13.20;99.90;;;;;;4973624;28;20789;-64
2021/09/28 06:06:26;;;;;;;4.00;3.50;;;13.20;99.90;;;;;;4976956;28;20500;-65
2021/09/28 06:08:52;;;;;;;3.10;2.90;;;13.20;99.90;;;;;;4976415;28;20296;-65
2021/09/28 06:11:17;;;;;;;4.80;3.20;;;13.30;99.90;;;;;;4976842;28;20495;-66
2021/09/28 06:13:43;;;;;;;3.17;2.90;;;13.30;99.90;;;;;;4976874;28;20176;-66
2021/09/28 06:16:08;;;;;;;4.80;3.33;;;13.40;99.90;;;;;;4976950;28;20170;-67
2021/09/28 06:18:46;;;;;;;4.40;3.57;;;13.50;99.90;;;;;;4957321;28;20182;-65
2021/09/28 06:21:12;;;;;;;7.70;3.80;;;13.50;99.90;;;;;;4976383;28;20177;-64
2021/09/28 06:23:38;;;;;;;3.93;3.63;;;13.50;99.90;;;;;;4976598;28;20922;-66
2021/09/28 06:26:04;;;;;;;4.13;3.80;;;13.60;99.90;;;;;;4959520;28;20414;-66
2021/09/28 06:28:35;;;;;;;4.83;4.27;;;13.60;99.90;;;;;;4975390;28;20198;-66
2021/09/28 06:31:05;;;;;;;3.83;3.50;;;13.60;99.90;;;;;;4969818;28;20413;-67
2021/09/28 06:33:30;;;;;;;3.97;3.53;;;13.60;99.90;;;;;;4976500;28;20458;-67
2021/09/28 06:35:56;;;;;;;8.23;3.40;;;13.70;99.90;;;;;;4964201;28;20407;-67
2021/09/28 06:38:22;;;;;;;3.47;3.20;;;13.70;99.90;;;;;;4956836;28;20183;-72
2021/09/28 06:40:47;;;;;;;3.37;3.00;;;13.70;99.90;;;;;;4956288;29;20176;-74
2021/09/28 06:43:13;;;;;;;2.80;2.33;;;13.80;99.90;;;;;;4955666;29;20241;-72
2021/09/28 06:45:39;;;;;;;4.00;2.70;;;13.90;99.90;;;;;;4956939;29;20210;-75
2021/09/28 06:48:04;;;;;;;4.80;3.07;;;14.00;99.90;;;;;;4956541;29;20674;-75
2021/09/28 06:50:30;;;;;;;3.83;3.53;;;14.10;99.90;;;;;;4963429;28;20613;-74
2021/09/28 06:52:56;;;;;;;4.03;3.73;;;14.10;99.90;;;;;;4958942;28;20546;-74
2021/09/28 06:55:22;;;;;;;7.60;4.10;;;14.10;99.90;;;;;;4966183;28;20577;-74
2021/09/28 06:57:47;;;;;;;6.13;3.80;;;14.10;99.90;;;;;;4954444;29;20174;-70
2021/09/28 07:00:13;;;;;;;4.03;3.47;;;14.10;99.90;;;;;;4954714;28;20211;-74
2021/09/28 07:02:39;;;;;;;8.20;3.70;;;14.20;99.90;;;;;;4954723;29;20186;-77
2021/09/28 07:05:13;;;;;;;4.20;3.10;;;14.20;99.90;;;;;;4954840;28;20419;-70
2021/09/28 07:07:39;;;;;;;3.57;3.27;;;14.30;99.90;;;;;;4968195;28;20194;-72
2021/09/28 07:10:06;;;;;;;4.23;3.60;;;14.20;99.90;;;;;;4975781;28;20437;-71
2021/09/28 07:12:32;;;;;;;5.87;4.20;;;14.20;99.90;;;;;;4976040;28;20423;-70
2021/09/28 07:15:06;;;;;;;3.80;3.50;;;14.30;99.90;;;;;;4975005;28;20518;-68
2021/09/28 07:17:32;;;;;;;8.63;3.83;;;14.30;99.90;;;;;;4968348;28;20251;-68
2021/09/28 07:19:58;;;;;;;4.20;3.00;;;14.30;99.90;;;;;;4975921;28;20526;-71
2021/09/28 07:22:26;;;;;;;4.50;3.10;;;14.30;99.90;;;;;;4966742;28;20430;-70
2021/09/28 07:24:52;;;;;;;3.23;3.03;;;14.40;99.90;;;;;;4958318;28;20184;-70
2021/09/28 07:27:19;;;;;;;3.70;3.40;;;14.60;99.90;;;;;;4975142;28;20490;-69
2021/09/28 07:29:44;;;;;;;3.30;3.00;;;14.70;99.90;;;;;;4974082;28;20834;-70
2021/09/28 07:32:10;;;;;;;4.33;3.03;;;14.70;99.90;;;;;;4945647;28;20420;-69
2021/09/28 07:34:35;;;;;;;3.37;2.90;;;14.80;99.90;;;;;;4975384;28;20250;-71
2021/09/28 07:37:01;;;;;;;3.50;3.20;;;14.70;99.90;;;;;;4966489;28;20480;-70
2021/09/28 07:39:27;;;;;;;3.20;2.83;;;14.70;99.90;;;;;;4955871;28;20219;-69
2021/09/28 07:41:53;;;;;;;5.20;3.80;;;14.70;99.90;;;;;;4956169;29;20459;-69
2021/09/28 07:44:20;;;;;;;3.73;3.43;;;14.70;99.90;;;;;;4955846;29;20267;-72
2021/09/28 07:46:45;;;;;;;3.60;3.30;;;14.70;99.90;;;;;;4955253;28;20251;-69
2021/09/28 07:49:11;;;;;;;3.40;3.10;;;14.80;99.90;;;;;;4963586;28;20546;-70
2021/09/28 07:51:37;;;;;;;6.10;3.30;;;15.10;99.90;;;;;;4974974;28;20188;-69
2021/09/28 07:54:02;;;;;;;3.87;3.10;;;15.60;99.90;;;;;;4974890;28;20189;-72
2021/09/28 07:56:29;;;;;;;5.20;3.00;;;16.00;99.90;;;;;;4974993;28;20172;-72
2021/09/28 07:58:54;;;;;;;3.60;2.63;;;16.40;99.90;;;;;;4957274;28;20253;-71
2021/09/28 08:01:21;;;;;;;3.90;2.50;;;17.30;99.90;;;;;;4964988;28;20845;-73
2021/09/28 08:03:47;;;;;;;3.23;2.47;;;18.30;99.90;;;;;;4955584;29;20416;-72
2021/09/28 08:06:13;;;;;;;3.80;3.23;;;19.20;99.90;;;;;;4955743;29;20406;-71
2021/09/28 08:08:38;;;;;;;2.63;2.30;;;20.20;99.90;;;;;;4954921;29;20222;-72
2021/09/28 08:11:04;;;;;;;2.40;2.30;;;21.00;99.90;;;;;;4938316;29;20192;-71
2021/09/28 08:13:30;;;;;;;4.73;2.77;;;21.80;99.80;;;;;;4972907;28;20522;-71
2021/09/28 08:15:55;;;;;;;3.50;2.33;;;22.40;98.20;;;;;;4974717;28;20181;-72
2021/09/28 08:18:21;;;;;;;2.80;2.60;;;22.50;97.10;;;;;;4974265;28;20414;-74
2021/09/28 08:20:47;;;;;;;3.00;2.70;;;22.30;96.00;;;;;;4974740;28;20169;-70
2021/09/28 08:23:13;;;;;;;2.63;2.43;;;22.00;95.80;;;;;;4974644;28;20172;-70
2021/09/28 08:25:59;;;;;;;1.80;1.70;;;21.50;97.30;;;;;;4974434;28;20259;-72
2021/09/28 08:31:11;;;;;;;1.80;1.70;;;22.90;95.70;;;;;;4973066;28;20423;-71
2021/09/28 08:33:37;;;;;;;2.27;2.07;;;23.90;95.00;;;;;;4974403;28;20403;-71
2021/09/28 08:36:05;;;;;;;4.70;3.00;;;24.60;93.40;;;;;;4941041;28;20465;-69
2021/09/28 08:38:31;;;;;;;3.13;2.63;;;24.80;91.90;;;;;;4973835;28;20383;-68
2021/09/28 08:41:00;;;;;;;3.20;2.60;;;24.30;92.10;;;;;;4973236;28;20378;-70
2021/09/28 08:43:27;;;;;;;2.70;2.50;;;23.80;92.60;;;;;;4955132;29;20734;-72
2021/09/28 08:45:53;;;;;;;4.80;2.77;;;23.00;93.00;;;;;;4955171;29;20939;-71
2021/09/28 08:48:19;;;;;;;2.97;2.67;;;22.00;94.40;;;;;;4954429;29;20434;-72
2021/09/28 08:50:49;;;;;;;3.53;2.60;;;21.00;95.80;;;;;;4954846;29;20987;-72
2021/09/28 08:53:20;;;;;;;4.03;2.47;;;20.20;97.60;;;;;;4955102;29;20438;-72
2021/09/28 08:55:46;;;;;;;3.67;3.37;;;19.50;98.30;;;;;;4956534;28;20382;-71
2021/09/28 08:58:18;;;;;;;2.77;2.57;;;18.80;99.20;;;;;;4973927;28;20571;-72
2021/09/28 09:00:45;;;;;;;1.90;1.80;;;18.40;99.90;;;;;;4978206;28;20169;-71
2021/09/28 09:03:25;;;;;;;2.67;2.50;;;18.00;99.90;;;;;;4978180;28;20435;-71
2021/09/28 09:05:51;;;;;;;2.40;2.20;;;17.80;99.90;;;;;;4978242;28;20382;-72
2021/09/28 09:08:26;;;;;;;3.13;2.83;;;17.80;99.90;;;;;;4977906;28;20513;-72
2021/09/28 09:11:08;;;;;;;3.13;2.93;;;18.20;99.90;;;;;;4977559;28;20171;-71
2021/09/28 09:13:35;;;;;;;2.80;2.37;;;18.50;99.90;;;;;;4960581;28;20452;-71
2021/09/28 09:16:01;;;;;;;4.03;3.63;;;18.60;99.90;;;;;;4978155;28;20375;-72
2021/09/28 09:18:27;;;;;;;2.00;1.90;;;18.60;99.90;;;;;;4977238;28;20425;-70
2021/09/28 09:20:53;;;;;;;3.43;2.17;;;18.70;99.90;;;;;;4977936;28;20428;-71
2021/09/28 09:23:25;;;;;;;2.40;2.20;;;19.10;99.90;;;;;;4977904;28;20412;-72
2021/09/28 09:26:26;;;;;;;2.30;2.10;;;20.10;99.50;;;;;;4971091;28;20271;-71
2021/09/28 09:28:57;;;;;;;1.80;1.70;;;21.30;96.70;;;;;;4957719;28;20464;-71
2021/09/28 09:31:34;;;;;;;1.63;1.53;;;22.60;95.70;;;;;;4958518;29;20386;-70
2021/09/28 09:34:19;;;;;;;1.90;1.73;;;23.70;94.40;;;;;;4958273;29;20379;-71
2021/09/28 09:37:01;;;;;;;2.07;1.97;;;25.00;91.90;;;;;;4940472;29;20427;-70
2021/09/28 09:39:42;;;;;;;1.97;1.70;;;26.10;89.80;;;;;;4958201;29;20791;-70
2021/09/28 09:42:08;;;;;;;2.30;2.10;;;26.90;88.40;;;;;;4958542;28;20451;-70
2021/09/28 09:44:35;;;;;;;3.10;2.90;;;27.40;84.30;;;;;;4958082;29;20448;-70
2021/09/28 09:47:01;;;;;;;2.20;2.10;;;27.90;82.10;;;;;;4957746;29;20161;-70
2021/09/28 09:49:31;;;;;;;2.23;2.13;;;28.20;80.90;;;;;;4957865;29;20495;-69
2021/09/28 09:52:08;;;;;;;2.30;2.20;;;28.70;78.80;;;;;;4957923;29;20435;-68
2021/09/28 09:54:39;;;;;;;2.93;2.63;;;28.90;77.50;;;;;;4957831;28;20411;-68
2021/09/28 09:57:07;;;;;;;2.47;2.37;;;28.20;76.30;;;;;;4976774;28;20415;-68
2021/09/28 09:59:33;;;;;;;2.13;1.97;;;27.10;77.50;;;;;;4962939;28;20551;-69
2021/09/28 10:02:00;;;;;;;2.40;2.20;;;26.80;79.10;;;;;;4957715;29;20867;-69
2021/09/28 10:04:27;;;;;;;2.30;2.03;;;26.00;79.50;;;;;;4957391;29;20965;-68
2021/09/28 10:06:55;;;;;;;2.03;1.73;;;25.10;81.20;;;;;;4957057;29;20392;-68
2021/09/28 10:09:27;;;;;;;3.07;2.17;;;24.00;84.50;;;;;;4957952;28;20551;-69
2021/09/28 10:12:00;;;;;;;1.90;1.80;;;23.20;85.40;;;;;;4976440;28;20407;-71
2021/09/28 10:14:41;;;;;;;1.70;1.60;;;22.70;89.30;;;;;;4976923;28;20896;-68
2021/09/28 10:17:28;;;;;;;5.37;2.40;;;23.00;89.00;;;;;;4976560;28;20435;-68
2021/09/28 10:19:56;;;;;;;1.60;1.43;;;23.50;86.90;;;;;;4975729;28;20431;-67
2021/09/28 10:22:42;;;;;;;2.13;1.70;;;24.20;85.40;;;;;;4957632;29;20450;-68
2021/09/28 10:25:22;;;;;;;2.40;2.10;;;24.50;83.10;;;;;;4957677;29;20430;-68
2021/09/28 10:27:52;;;;;;;2.40;2.20;;;24.70;82.70;;;;;;4956894;29;20456;-68
2021/09/28 10:30:35;;;;;;;1.90;1.80;;;24.50;80.70;;;;;;4957143;29;20930;-69
2021/09/28 10:33:06;;;;;;;1.90;1.80;;;23.80;81.30;;;;;;4957503;29;20383;-69
2021/09/28 10:35:34;;;;;;;2.00;1.80;;;23.30;82.90;;;;;;4956915;28;20815;-68
2021/09/28 10:38:03;;;;;;;3.20;2.37;;;23.10;81.20;;;;;;4956868;29;20392;-70
2021/09/28 10:40:28;;;;;;;2.27;1.97;;;22.60;82.30;;;;;;4957312;29;20407;-70
2021/09/28 10:43:06;;;;;;;1.70;1.60;;;22.20;83.90;;;;;;4956907;29;20406;-69
2021/09/28 10:45:32;;;;;;;2.50;1.73;;;21.60;85.00;;;;;;4957145;29;20232;-68
2021/09/28 10:48:18;;;;;;;1.80;1.70;;;21.20;86.60;;;;;;4956645;29;20950;-68
2021/09/28 10:50:45;;;;;;;2.23;2.00;;;21.10;87.60;;;;;;4967419;28;20198;-68
2021/09/28 10:53:19;;;;;;;2.50;2.30;;;21.00;89.20;;;;;;4963326;28;20783;-69
2021/09/28 10:56:00;;;;;;;2.20;2.00;;;20.90;88.40;;;;;;4956944;29;20411;-68
2021/09/28 10:58:27;;;;;;;1.97;1.87;;;21.00;89.40;;;;;;4956544;29;20404;-69
2021/09/28 11:00:56;;;;;;;2.00;1.80;;;21.40;90.70;;;;;;4956930;29;20425;-68
2021/09/28 11:03:41;;;;;;;2.60;2.40;;;21.80;87.70;;;;;;4956647;29;20551;-68
2021/09/28 11:06:08;;;;;;;3.70;1.80;;;21.80;86.00;;;;;;4956757;29;20398;-68
2021/09/28 11:08:37;;;;;;;2.13;1.97;;;21.60;86.30;;;;;;4972855;28;20511;-68
2021/09/28 11:11:05;;;;;;;2.20;1.83;;;21.40;86.80;;;;;;4966385;28;20427;-67
2021/09/28 11:13:33;;;;;;;2.87;2.60;;;21.10;88.40;;;;;;4956473;29;20377;-68
2021/09/28 11:16:04;;;;;;;3.63;3.33;;;20.90;89.60;;;;;;4956419;29;20422;-67
2021/09/28 11:18:31;;;;;;;2.30;2.20;;;20.50;89.50;;;;;;4955748;29;20417;-68
2021/09/28 11:21:11;;;;;;;4.50;2.70;;;20.30;91.10;;;;;;4957074;29;20414;-67
2021/09/28 11:23:38;;;;;;;3.03;2.73;;;20.20;90.20;;;;;;4956251;28;20408;-67
2021/09/28 11:26:05;;;;;;;2.37;2.17;;;20.20;90.30;;;;;;4956228;28;20406;-66
2021/09/28 11:28:30;;;;;;;6.20;2.50;;;20.10;90.20;;;;;;4955406;29;20456;-68
2021/09/28 11:31:04;;;;;;;2.80;2.53;;;19.90;91.00;;;;;;4938516;29;20421;-68
2021/09/28 11:33:38;;;;;;;2.93;2.63;;;19.60;91.50;;;;;;4956057;29;20686;-68
2021/09/28 11:36:08;;;;;;;2.97;2.50;;;19.50;91.50;;;;;;4961900;28;20393;-66
2021/09/28 11:38:39;;;;;;;2.43;2.20;;;19.40;92.40;;;;;;4974638;28;20419;-67
2021/09/28 11:41:07;;;;;;;4.93;2.10;;;19.30;92.30;;;;;;4975079;28;20482;-68
2021/09/28 11:43:35;;;;;;;4.50;2.43;;;19.20;92.40;;;;;;4975048;28;20489;-68
2021/09/28 11:46:12;;;;;;;1.93;1.83;;;19.10;91.90;;;;;;4975351;28;20484;-68
2021/09/28 11:48:41;;;;;;;1.67;1.57;;;19.00;92.00;;;;;;4974887;28;20438;-68
2021/09/28 11:51:27;;;;;;;2.63;2.10;;;19.10;92.30;;;;;;4973341;28;20549;-68
2021/09/28 11:53:58;;;;;;;3.50;1.93;;;19.10;92.50;;;;;;4957981;28;20392;-68
2021/09/28 11:56:26;;;;;;;2.37;2.00;;;19.10;93.00;;;;;;4974623;28;20749;-69
2021/09/28 11:58:53;;;;;;;2.60;2.40;;;19.10;92.40;;;;;;4974112;28;20413;-69
2021/09/28 12:01:20;;;;;;;2.50;2.00;;;19.10;92.70;;;;;;4974623;28;20411;-69
2021/09/28 12:04:03;;;;;;;2.90;2.13;;;19.00;92.30;;;;;;4974592;28;20890;-66
2021/09/28 12:06:45;;;;;;;3.03;2.70;;;18.90;92.60;;;;;;4974125;28;20401;-69
2021/09/28 12:09:11;;;;;;;2.57;2.37;;;18.90;92.40;;;;;;4972390;28;20528;-68
2021/09/28 12:12:06;;;;;;;2.57;2.37;;;19.00;91.90;;;;;;4955266;28;20506;-68
2021/09/28 12:14:34;;;;;;;2.63;2.43;;;19.10;92.20;;;;;;4972732;28;20180;-68
2021/09/28 12:17:16;;;;;;;4.40;3.57;;;19.10;92.40;;;;;;4972448;28;20390;-69
2021/09/28 12:19:48;;;;;;;4.00;3.10;;;19.30;92.80;;;;;;4972447;28;20403;-68
2021/09/28 12:22:30;;;;;;;2.73;2.47;;;19.50;92.30;;;;;;4973148;28;20394;-68
2021/09/28 12:24:56;;;;;;;2.40;1.87;;;19.60;92.00;;;;;;4957135;28;20443;-68
2021/09/28 12:27:23;;;;;;;1.83;1.70;;;19.70;92.30;;;;;;4974010;28;20511;-69
2021/09/28 12:29:50;;;;;;;2.87;2.20;;;19.90;91.80;;;;;;4974428;28;20441;-68
2021/09/28 12:32:22;;;;;;;2.20;2.03;;;19.90;90.60;;;;;;4956981;28;20428;-69
2021/09/28 12:34:54;;;;;;;2.40;2.30;;;19.90;90.40;;;;;;4954833;29;20395;-68
2021/09/28 12:37:20;;;;;;;2.83;2.50;;;19.70;91.20;;;;;;4954848;29;20383;-68
2021/09/28 12:40:05;;;;;;;6.03;2.40;;;19.70;91.30;;;;;;4954977;29;20929;-68
2021/09/28 12:42:31;;;;;;;2.40;2.20;;;19.70;91.70;;;;;;4955183;29;20425;-68
2021/09/28 12:45:05;;;;;;;2.20;2.10;;;19.60;91.40;;;;;;4955090;28;20383;-67
2021/09/28 12:47:46;;;;;;;2.40;2.20;;;19.70;91.20;;;;;;4937351;29;20431;-70
2021/09/28 12:50:33;;;;;;;2.70;1.93;;;19.70;91.50;;;;;;4954999;29;20407;-69
2021/09/28 12:53:17;;;;;;;1.70;1.60;;;19.70;92.40;;;;;;4955264;29;20753;-68
2021/09/28 12:55:46;;;;;;;3.53;2.13;;;19.80;91.10;;;;;;4936023;29;20441;-68